createdAt,value
2023-01-08T00:01:44.719Z,28.20
2023-01-08T00:04:14.697Z,28.20
2023-01-08T00:06:44.175Z,28.19
2023-01-08T00:09:13.576Z,28.17
2023-01-08T00:11:43.929Z,28.16
2023-01-08T00:14:13.177Z,28.15
2023-01-08T00:16:42.777Z,28.18
2023-01-08T00:19:13.071Z,28.17
2023-01-08T00:21:42.341Z,28.16
2023-01-08T00:24:11.756Z,28.17
2023-01-08T00:26:41.092Z,28.20
2023-01-08T00:29:10.491Z,28.19
2023-01-08T00:31:39.770Z,28.18
2023-01-08T00:34:10.474Z,28.14
2023-01-08T00:36:41.693Z,28.15
2023-01-08T00:39:11.007Z,28.14
2023-01-08T00:41:40.298Z,28.16
2023-01-08T00:44:09.407Z,28.14
2023-01-08T00:46:38.477Z,28.20
2023-01-08T00:49:07.771Z,28.21
2023-01-08T00:51:36.943Z,28.18
2023-01-08T00:54:06.302Z,28.15
2023-01-08T00:56:35.554Z,28.17
2023-01-08T00:59:04.777Z,28.16
2023-01-08T01:01:34.057Z,28.16
2023-01-08T01:04:03.639Z,28.18
2023-01-08T01:06:32.819Z,28.20
2023-01-08T01:09:02.373Z,28.16
2023-01-08T01:11:31.916Z,28.19
2023-01-08T01:14:01.245Z,28.24
2023-01-08T01:16:30.595Z,28.33
2023-01-08T01:18:59.870Z,28.39
2023-01-08T01:21:29.781Z,28.47
2023-01-08T01:23:59.714Z,28.54
2023-01-08T01:26:29.047Z,28.63
2023-01-08T01:29:01.555Z,28.68
2023-01-08T01:31:31.239Z,28.75
2023-01-08T01:34:00.570Z,28.92
2023-01-08T01:36:29.759Z,29.12
2023-01-08T01:38:59.798Z,29.12
2023-01-08T01:41:33.063Z,29.10
2023-01-08T01:44:02.600Z,29.11
2023-01-08T01:46:36.126Z,29.09
2023-01-08T01:49:10.020Z,29.13
2023-01-08T01:51:39.194Z,29.14
2023-01-08T01:54:09.346Z,29.15
2023-01-08T01:56:38.719Z,29.16
2023-01-08T01:59:08.027Z,29.18
2023-01-08T02:01:37.380Z,29.19
2023-01-08T02:04:07.499Z,29.22
2023-01-08T02:06:37.848Z,29.25
2023-01-08T02:09:08.750Z,29.26
2023-01-08T02:11:39.757Z,29.27
2023-01-08T02:14:09.996Z,29.27
2023-01-08T02:16:40.622Z,29.29
2023-01-08T02:19:20.464Z,29.28
2023-01-08T02:21:51.111Z,29.29
2023-01-08T02:24:24.742Z,29.32
2023-01-08T02:26:54.348Z,29.29
2023-01-08T02:29:24.671Z,29.32
2023-01-08T02:31:53.893Z,29.31
2023-01-08T02:34:23.150Z,29.31
2023-01-08T02:36:55.289Z,29.34
2023-01-08T02:39:29.392Z,29.23
2023-01-08T02:42:00.115Z,29.14
2023-01-08T02:44:30.707Z,29.07
2023-01-08T02:47:00.179Z,29.02
2023-01-08T02:49:30.778Z,28.98
2023-01-08T02:52:01.553Z,28.95
2023-01-08T02:54:31.255Z,28.92
2023-01-08T02:57:05.084Z,28.90
2023-01-08T02:59:34.626Z,28.85
2023-01-08T03:02:04.205Z,28.83
2023-01-08T03:04:34.736Z,28.83
2023-01-08T03:07:04.183Z,28.82
2023-01-08T03:09:33.375Z,28.79
2023-01-08T03:12:04.279Z,28.79
2023-01-08T03:14:40.711Z,28.80
2023-01-08T03:17:14.214Z,28.78
2023-01-08T03:19:44.812Z,28.78
2023-01-08T03:22:14.462Z,28.77
2023-01-08T03:24:43.639Z,28.78
2023-01-08T03:27:13.960Z,28.74
2023-01-08T03:29:43.210Z,28.74
2023-01-08T03:32:13.637Z,28.74
2023-01-08T03:34:43.067Z,28.69
2023-01-08T03:37:12.357Z,28.69
2023-01-08T03:39:46.329Z,28.67
2023-01-08T03:42:15.677Z,28.67
2023-01-08T03:44:44.881Z,28.67
2023-01-08T03:47:14.478Z,28.65
2023-01-08T03:49:44.058Z,28.67
2023-01-08T03:52:14.932Z,28.62
2023-01-08T03:54:44.242Z,28.60
2023-01-08T03:57:13.699Z,28.58
2023-01-08T03:59:42.793Z,28.57
2023-01-08T04:02:12.103Z,28.57
2023-01-08T04:04:41.506Z,28.55
2023-01-08T04:07:11.910Z,28.52
2023-01-08T04:09:41.018Z,28.53
2023-01-08T04:12:10.185Z,28.51
2023-01-08T04:14:39.501Z,28.53
2023-01-08T04:17:10.086Z,28.52
2023-01-08T04:19:39.349Z,28.50
2023-01-08T04:22:08.635Z,28.45
2023-01-08T04:24:37.987Z,28.46
2023-01-08T04:27:07.376Z,28.46
2023-01-08T04:29:36.635Z,28.46
2023-01-08T04:32:06.054Z,28.56
2023-01-08T04:34:35.300Z,28.61
2023-01-08T04:37:04.582Z,28.67
2023-01-08T04:39:33.887Z,28.75
2023-01-08T04:42:03.623Z,28.81
2023-01-08T04:44:32.912Z,28.87
2023-01-08T04:47:02.407Z,28.93
2023-01-08T04:49:31.765Z,29.01
2023-01-08T04:52:01.530Z,29.05
2023-01-08T04:54:30.836Z,29.09
2023-01-08T04:57:00.134Z,29.11
2023-01-08T04:59:29.832Z,29.14
2023-01-08T05:01:59.376Z,29.17
2023-01-08T05:04:32.536Z,29.22
2023-01-08T05:07:22.514Z,29.25
2023-01-08T05:09:51.625Z,29.24
2023-01-08T05:12:20.955Z,29.26
2023-01-08T05:14:50.221Z,29.27
2023-01-08T05:17:22.517Z,29.30
2023-01-08T05:19:51.776Z,29.29
2023-01-08T05:22:21.110Z,29.31
2023-01-08T05:24:50.307Z,29.33
2023-01-08T05:27:19.916Z,29.34
2023-01-08T05:29:49.124Z,29.33
2023-01-08T05:32:18.762Z,29.36
2023-01-08T05:34:48.183Z,29.36
2023-01-08T05:37:17.794Z,29.35
2023-01-08T05:39:47.151Z,29.42
2023-01-08T05:42:16.678Z,29.48
2023-01-08T05:44:46.291Z,29.41
2023-01-08T05:47:15.468Z,29.37
2023-01-08T05:49:44.753Z,29.33
2023-01-08T05:52:14.072Z,29.33
2023-01-08T05:54:43.299Z,29.38
2023-01-08T05:57:12.715Z,29.34
2023-01-08T05:59:42.006Z,29.28
2023-01-08T06:02:11.352Z,29.26
2023-01-08T06:04:40.795Z,29.23
2023-01-08T06:07:10.132Z,29.23
2023-01-08T06:09:39.380Z,29.28
2023-01-08T06:12:09.072Z,29.22
2023-01-08T06:14:40.312Z,29.15
2023-01-08T06:17:09.472Z,29.12
2023-01-08T06:19:40.363Z,29.08
2023-01-08T06:22:09.681Z,29.07
2023-01-08T06:24:38.936Z,29.02
2023-01-08T06:27:08.344Z,29.00
2023-01-08T06:29:37.564Z,28.97
2023-01-08T06:32:06.834Z,29.03
2023-01-08T06:34:36.160Z,28.98
2023-01-08T06:37:05.391Z,28.94
2023-01-08T06:39:34.607Z,28.89
2023-01-08T06:42:03.991Z,28.86
2023-01-08T06:44:33.286Z,28.81
2023-01-08T06:47:04.488Z,28.79
2023-01-08T06:49:33.412Z,28.75
2023-01-08T06:52:06.523Z,28.74
2023-01-08T06:54:35.741Z,28.72
2023-01-08T06:57:08.773Z,28.71
2023-01-08T06:59:38.016Z,28.66
2023-01-08T07:02:07.398Z,28.64
2023-01-08T07:04:36.751Z,28.63
2023-01-08T07:07:06.399Z,28.65
2023-01-08T07:09:36.080Z,28.61
2023-01-08T07:12:05.576Z,28.56
2023-01-08T07:14:35.160Z,28.53
2023-01-08T07:17:04.493Z,28.49
2023-01-08T07:19:33.996Z,28.46
2023-01-08T07:22:03.375Z,28.44
2023-01-08T07:24:32.524Z,28.41
2023-01-08T07:27:01.871Z,28.39
2023-01-08T07:29:31.128Z,28.37
2023-01-08T07:32:00.392Z,28.33
2023-01-08T07:34:29.727Z,28.32
2023-01-08T07:36:59.520Z,28.28
2023-01-08T07:39:29.544Z,28.23
2023-01-08T07:41:59.645Z,28.22
2023-01-08T07:44:29.446Z,28.19
2023-01-08T07:46:59.917Z,28.16
2023-01-08T07:49:30.109Z,28.14
2023-01-08T07:51:59.565Z,28.12
2023-01-08T07:54:29.507Z,28.09
2023-01-08T07:56:59.886Z,28.05
2023-01-08T07:59:29.515Z,28.03
2023-01-08T08:01:58.803Z,28.01
2023-01-08T08:04:28.249Z,27.99
2023-01-08T08:07:00.161Z,27.95
2023-01-08T08:09:29.509Z,27.94
2023-01-08T08:11:59.599Z,27.92
2023-01-08T08:14:29.506Z,27.90
2023-01-08T08:16:59.531Z,27.86
2023-01-08T08:19:28.895Z,27.83
2023-01-08T08:21:58.696Z,27.78
2023-01-08T08:24:28.728Z,27.76
2023-01-08T08:26:58.936Z,27.76
2023-01-08T08:29:28.785Z,27.75
2023-01-08T08:31:58.905Z,27.70
2023-01-08T08:34:28.881Z,27.67
2023-01-08T08:36:58.801Z,27.65
2023-01-08T08:39:28.735Z,27.63
2023-01-08T08:41:58.825Z,27.60
2023-01-08T08:44:28.787Z,27.59
2023-01-08T08:46:58.837Z,27.55
2023-01-08T08:49:28.264Z,27.54
2023-01-08T08:51:57.822Z,27.51
2023-01-08T08:54:27.931Z,27.48
2023-01-08T08:56:58.139Z,27.45
2023-01-08T08:59:27.887Z,27.42
2023-01-08T09:01:58.053Z,27.40
2023-01-08T09:04:28.118Z,27.38
2023-01-08T09:06:57.960Z,27.36
2023-01-08T09:09:27.952Z,27.35
2023-01-08T09:11:58.057Z,27.31
2023-01-08T09:14:27.910Z,27.29
2023-01-08T09:16:58.008Z,27.26
2023-01-08T09:19:28.014Z,27.24
2023-01-08T09:21:58.292Z,27.21
2023-01-08T09:24:28.225Z,27.17
2023-01-08T09:27:00.682Z,27.17
2023-01-08T09:29:30.069Z,27.14
2023-01-08T09:32:01.180Z,27.11
2023-01-08T09:34:32.123Z,27.09
2023-01-08T09:37:01.372Z,27.07
2023-01-08T09:39:30.668Z,27.05
2023-01-08T09:42:00.475Z,27.00
2023-01-08T09:44:30.057Z,27.00
2023-01-08T09:46:59.352Z,26.97
2023-01-08T09:49:30.409Z,26.94
2023-01-08T09:52:00.533Z,26.92
2023-01-08T09:54:29.761Z,26.89
2023-01-08T09:57:00.155Z,26.88
2023-01-08T09:59:29.900Z,26.85
2023-01-08T10:01:59.275Z,26.80
2023-01-08T10:04:29.143Z,26.79
2023-01-08T10:07:06.008Z,26.78
2023-01-08T10:09:35.214Z,26.74
2023-01-08T10:12:04.635Z,26.73
2023-01-08T10:14:35.250Z,26.71
2023-01-08T10:17:11.579Z,26.67
2023-01-08T10:19:39.964Z,26.65
2023-01-08T10:22:16.754Z,26.66
2023-01-08T10:24:46.285Z,26.68
2023-01-08T10:27:16.742Z,26.64
2023-01-08T10:29:45.907Z,26.63
2023-01-08T10:32:21.985Z,26.61
2023-01-08T10:34:56.140Z,26.57
2023-01-08T10:37:29.173Z,26.55
2023-01-08T10:40:00.402Z,26.50
2023-01-08T10:42:29.988Z,26.51
2023-01-08T10:45:01.626Z,26.49
2023-01-08T10:47:31.503Z,26.50
2023-01-08T10:50:00.860Z,26.48
2023-01-08T10:52:32.824Z,26.49
2023-01-08T10:55:16.005Z,26.47
2023-01-08T10:57:45.345Z,26.45
2023-01-08T11:00:24.542Z,26.44
2023-01-08T11:02:53.847Z,26.43
2023-01-08T11:05:24.242Z,26.38
2023-01-08T11:07:57.926Z,26.38
2023-01-08T11:10:27.577Z,26.38
2023-01-08T11:12:58.874Z,26.35
2023-01-08T11:15:29.829Z,26.31
2023-01-08T11:18:17.630Z,26.27
2023-01-08T11:20:49.285Z,26.27
2023-01-08T11:23:19.278Z,26.21
2023-01-08T11:26:07.650Z,26.23
2023-01-08T11:28:47.610Z,26.21
2023-01-08T11:34:11.912Z,26.16
2023-01-08T11:36:42.585Z,26.12
2023-01-08T11:39:11.732Z,26.08
2023-01-08T11:41:42.282Z,26.07
2023-01-08T11:44:16.141Z,26.04
2023-01-08T11:46:55.869Z,26.09
2023-01-08T11:49:32.637Z,26.05
2023-01-08T11:52:19.793Z,26.05
2023-01-08T11:54:56.541Z,26.01
2023-01-08T11:57:31.013Z,25.99
2023-01-08T12:00:08.853Z,26.01
2023-01-08T12:02:42.405Z,25.95
2023-01-08T12:05:48.751Z,26.00
2023-01-08T12:08:22.768Z,26.00
2023-01-08T12:10:56.559Z,25.96
2023-01-08T12:13:29.867Z,25.91
2023-01-08T12:16:10.151Z,25.92
2023-01-08T12:18:57.319Z,25.89
2023-01-08T12:21:28.080Z,25.95
2023-01-08T12:24:13.167Z,25.94
2023-01-08T12:26:46.607Z,25.90
2023-01-08T12:29:17.372Z,25.86
2023-01-08T12:32:05.640Z,25.88
2023-01-08T12:34:38.763Z,25.86
2023-01-08T12:37:15.739Z,25.90
2023-01-08T12:39:57.052Z,25.88
2023-01-08T12:42:27.044Z,25.86
2023-01-08T12:44:57.101Z,25.85
2023-01-08T12:47:27.583Z,25.83
2023-01-08T12:49:59.055Z,25.83
2023-01-08T12:52:31.353Z,25.86
2023-01-08T12:55:05.175Z,25.88
2023-01-08T12:57:35.741Z,25.82
2023-01-08T13:00:09.717Z,25.84
2023-01-08T13:02:40.356Z,25.80
2023-01-08T13:05:19.965Z,25.83
2023-01-08T13:07:49.950Z,25.82
2023-01-08T13:10:38.341Z,25.82
2023-01-08T13:13:07.952Z,25.84
2023-01-08T13:15:37.147Z,25.81
2023-01-08T13:18:09.955Z,25.81
2023-01-08T13:20:39.246Z,25.80
2023-01-08T13:23:08.603Z,25.81
2023-01-08T13:25:38.242Z,25.81
2023-01-08T13:28:20.482Z,25.82
2023-01-08T13:30:50.934Z,25.82
2023-01-08T13:33:40.571Z,25.81
2023-01-08T13:36:11.151Z,25.81
2023-01-08T13:38:40.692Z,25.80
2023-01-08T13:41:26.796Z,25.80
2023-01-08T13:44:06.187Z,25.79
2023-01-08T13:46:37.036Z,25.78
2023-01-08T13:49:10.016Z,25.79
2023-01-08T13:51:43.731Z,25.80
2023-01-08T13:54:17.562Z,25.80
2023-01-08T13:56:47.462Z,25.78
2023-01-08T13:59:20.836Z,25.80
2023-01-08T14:01:57.068Z,25.82
2023-01-08T14:04:26.703Z,25.79
2023-01-08T14:06:56.065Z,25.82
2023-01-08T14:09:25.637Z,25.83
2023-01-08T14:14:45.416Z,25.85
2023-01-08T14:17:17.519Z,25.81
2023-01-08T14:19:46.827Z,25.82
2023-01-08T14:22:22.657Z,25.80
2023-01-08T14:24:53.347Z,25.91
2023-01-08T14:27:29.905Z,25.99
2023-01-08T14:29:59.995Z,26.03
2023-01-08T14:32:33.542Z,26.08
2023-01-08T14:35:02.914Z,26.14
2023-01-08T14:37:32.099Z,26.30
2023-01-08T14:40:01.578Z,26.32
2023-01-08T14:42:45.331Z,26.33
2023-01-08T14:45:21.931Z,26.36
2023-01-08T14:47:51.696Z,26.38
2023-01-08T14:50:22.280Z,26.41
2023-01-08T14:52:54.755Z,26.45
2023-01-08T14:55:24.038Z,26.55
2023-01-08T14:57:54.542Z,26.53
2023-01-08T15:00:30.468Z,26.53
2023-01-08T15:03:00.214Z,26.56
2023-01-08T15:05:33.400Z,26.59
2023-01-08T15:08:06.119Z,26.59
2023-01-08T15:10:37.025Z,26.46
2023-01-08T15:13:07.722Z,26.55
2023-01-08T15:15:37.100Z,26.60
2023-01-08T15:18:07.271Z,26.62
2023-01-08T15:20:36.639Z,26.64
2023-01-08T15:23:05.951Z,26.67
2023-01-08T15:25:35.444Z,26.69
2023-01-08T15:28:05.170Z,26.70
2023-01-08T15:30:38.449Z,26.74
2023-01-08T15:33:11.595Z,26.75
2023-01-08T15:35:43.944Z,26.76
2023-01-08T15:38:16.293Z,26.78
2023-01-08T15:40:45.743Z,26.79
2023-01-08T15:43:16.297Z,26.79
2023-01-08T15:45:49.188Z,26.82
2023-01-08T15:48:18.542Z,26.78
2023-01-08T15:50:47.773Z,26.77
2023-01-08T15:53:20.362Z,26.74
2023-01-08T15:55:51.696Z,26.71
2023-01-08T15:58:20.214Z,26.71
2023-01-08T16:00:49.425Z,26.71
2023-01-08T16:03:18.769Z,26.68
2023-01-08T16:05:48.036Z,26.66
2023-01-08T16:08:17.289Z,26.67
2023-01-08T16:10:46.917Z,26.66
2023-01-08T16:13:16.197Z,26.68
2023-01-08T16:15:45.393Z,26.67
2023-01-08T16:18:14.676Z,26.66
2023-01-08T16:20:43.943Z,26.64
2023-01-08T16:23:15.649Z,26.62
2023-01-08T16:25:45.207Z,26.61
2023-01-08T16:28:14.756Z,26.62
2023-01-08T16:30:44.919Z,26.60
2023-01-08T16:33:16.402Z,26.61
2023-01-08T16:35:45.301Z,26.57
2023-01-08T16:38:14.957Z,26.56
2023-01-08T16:40:44.480Z,26.56
2023-01-08T16:43:13.682Z,26.49
2023-01-08T16:45:44.354Z,26.47
2023-01-08T16:48:14.074Z,26.49
2023-01-08T16:50:43.424Z,26.50
2023-01-08T16:53:12.514Z,26.50
2023-01-08T16:55:42.147Z,26.49
2023-01-08T16:58:11.393Z,26.48
2023-01-08T17:00:40.614Z,26.49
2023-01-08T17:03:09.865Z,26.47
2023-01-08T17:05:39.071Z,26.48
2023-01-08T17:08:09.277Z,26.42
2023-01-08T17:10:40.610Z,26.42
2023-01-08T17:13:09.872Z,26.45
2023-01-08T17:15:39.062Z,26.44
2023-01-08T17:18:08.352Z,26.46
2023-01-08T17:20:37.539Z,26.45
2023-01-08T17:23:06.856Z,26.43
2023-01-08T17:25:36.261Z,26.45
2023-01-08T17:28:05.577Z,26.45
2023-01-08T17:30:34.917Z,26.46
2023-01-08T17:33:04.677Z,26.49
2023-01-08T17:35:33.938Z,26.45
2023-01-08T17:38:03.191Z,26.44
2023-01-08T17:40:32.584Z,26.44
2023-01-08T17:43:02.082Z,26.46
2023-01-08T17:45:31.372Z,26.48
2023-01-08T17:48:01.381Z,26.44
2023-01-08T17:50:31.303Z,26.47
2023-01-08T17:53:01.394Z,26.47
2023-01-08T17:55:31.503Z,26.46
2023-01-08T17:58:01.351Z,26.45
2023-01-08T18:00:31.356Z,26.39
2023-01-08T18:03:04.968Z,26.45
2023-01-08T18:05:34.344Z,26.46
2023-01-08T18:08:03.643Z,26.52
2023-01-08T18:10:32.992Z,26.56
2023-01-08T18:13:02.285Z,26.61
2023-01-08T18:15:31.572Z,26.67
2023-01-08T18:18:01.918Z,26.73
2023-01-08T18:20:31.821Z,26.75
2023-01-08T18:23:01.367Z,26.81
2023-01-08T18:25:30.968Z,26.86
2023-01-08T18:28:00.475Z,26.91
2023-01-08T18:30:31.730Z,26.95
2023-01-08T18:33:00.982Z,27.01
2023-01-08T18:35:32.971Z,27.05
2023-01-08T18:38:02.281Z,27.06
2023-01-08T18:40:31.816Z,27.07
2023-01-08T18:43:01.398Z,27.08
2023-01-08T18:45:31.944Z,27.09
2023-01-08T18:48:01.543Z,27.09
2023-01-08T18:50:30.822Z,27.08
2023-01-08T18:53:00.565Z,27.08
2023-01-08T18:55:30.703Z,27.07
2023-01-08T18:58:00.536Z,27.09
2023-01-08T19:00:29.691Z,27.09
2023-01-08T19:02:59.797Z,27.09
2023-01-08T19:05:29.718Z,27.09
2023-01-08T19:07:59.711Z,27.09
2023-01-08T19:10:29.696Z,27.09
2023-01-08T19:12:59.733Z,27.08
2023-01-08T19:15:29.698Z,27.09
2023-01-08T19:18:01.045Z,27.10
2023-01-08T19:20:30.632Z,27.09
2023-01-08T19:23:00.570Z,27.09
2023-01-08T19:25:33.681Z,27.09
2023-01-08T19:28:02.941Z,27.08
2023-01-08T19:30:32.149Z,27.09
2023-01-08T19:33:01.398Z,27.10
2023-01-08T19:35:31.548Z,27.09
2023-01-08T19:38:01.966Z,27.10
2023-01-08T19:40:31.866Z,27.09
2023-01-08T19:43:20.457Z,27.09
2023-01-08T19:45:49.652Z,27.11
2023-01-08T19:48:19.523Z,27.12
2023-01-08T19:50:49.399Z,27.11
2023-01-08T19:53:18.874Z,27.12
2023-01-08T19:55:48.014Z,27.13
2023-01-08T19:58:18.649Z,27.10
2023-01-08T20:00:47.852Z,27.11
2023-01-08T20:03:18.469Z,27.13
2023-01-08T20:05:47.671Z,27.10
2023-01-08T20:08:17.245Z,27.10
2023-01-08T20:10:46.606Z,27.11
2023-01-08T20:13:16.238Z,27.11
2023-01-08T20:15:45.366Z,27.11
2023-01-08T20:18:15.050Z,27.11
2023-01-08T20:21:03.193Z,27.12
2023-01-08T20:23:32.743Z,27.11
2023-01-08T20:26:06.740Z,27.10
2023-01-08T20:28:36.229Z,27.09
2023-01-08T20:31:09.190Z,27.11
2023-01-08T20:33:38.543Z,27.13
2023-01-08T20:36:11.351Z,27.13
2023-01-08T20:38:40.524Z,27.11
2023-01-08T20:41:09.806Z,27.11
2023-01-08T20:43:40.372Z,27.12
2023-01-08T20:46:10.835Z,27.11
2023-01-08T20:48:47.056Z,27.12
2023-01-08T20:51:10.778Z,27.15
2023-01-08T20:53:40.011Z,27.14
2023-01-08T20:56:10.503Z,27.14
2023-01-08T20:58:40.061Z,27.13
2023-01-08T21:01:10.007Z,27.15
2023-01-08T21:03:39.355Z,27.15
2023-01-08T21:06:09.168Z,27.17
2023-01-08T21:08:38.406Z,27.15
2023-01-08T21:11:07.802Z,27.17
2023-01-08T21:13:36.987Z,27.18
2023-01-08T21:16:07.126Z,27.22
2023-01-08T21:18:36.441Z,27.23
2023-01-08T21:21:06.105Z,27.24
2023-01-08T21:23:35.398Z,27.25
2023-01-08T21:26:05.506Z,27.27
2023-01-08T21:28:34.696Z,27.28
2023-01-08T21:31:16.496Z,27.29
2023-01-08T21:33:47.759Z,27.30
2023-01-08T21:36:17.663Z,27.27
2023-01-08T21:38:46.902Z,27.19
2023-01-08T21:41:34.342Z,27.17
2023-01-08T21:44:21.162Z,27.17
2023-01-08T21:46:50.335Z,27.25
2023-01-08T21:49:19.624Z,27.28
2023-01-08T21:52:06.314Z,27.33
2023-01-08T21:54:35.534Z,27.34
2023-01-08T21:57:04.905Z,27.38
2023-01-08T21:59:34.316Z,27.38
2023-01-08T22:02:03.639Z,27.37
2023-01-08T22:04:32.915Z,27.40
2023-01-08T22:07:02.253Z,27.42
2023-01-08T22:09:32.092Z,27.42
2023-01-08T22:12:02.034Z,27.43
2023-01-08T22:14:31.858Z,27.44
2023-01-08T22:17:03.353Z,27.45
2023-01-08T22:19:32.669Z,27.45
2023-01-08T22:22:01.939Z,27.46
2023-01-08T22:24:31.972Z,27.47
2023-01-08T22:27:02.070Z,27.48
2023-01-08T22:29:31.954Z,27.49
2023-01-08T22:32:04.830Z,27.49
2023-01-08T22:34:34.323Z,27.50
2023-01-08T22:37:03.532Z,27.50
2023-01-08T22:39:32.875Z,27.53
2023-01-08T22:42:02.247Z,27.53
2023-01-08T22:44:31.941Z,27.53
2023-01-08T22:47:03.519Z,27.54
2023-01-08T22:49:36.561Z,27.55
2023-01-08T22:52:05.805Z,27.55
2023-01-08T22:54:34.994Z,27.57
2023-01-08T22:57:04.409Z,27.56
2023-01-08T23:02:24.036Z,27.58
2023-01-08T23:04:53.298Z,27.59
2023-01-08T23:07:22.501Z,27.58
2023-01-08T23:09:51.675Z,27.59
2023-01-08T23:12:24.053Z,27.60
2023-01-08T23:14:53.259Z,27.59
2023-01-08T23:17:22.550Z,27.59
2023-01-08T23:19:51.806Z,27.59
2023-01-08T23:22:21.057Z,27.58
2023-01-08T23:24:50.367Z,27.58
2023-01-08T23:27:19.547Z,27.57
2023-01-08T23:29:48.670Z,27.60
2023-01-08T23:32:17.948Z,27.57
2023-01-08T23:34:47.182Z,27.58
2023-01-08T23:37:16.463Z,27.58
2023-01-08T23:39:47.976Z,27.57
2023-01-08T23:42:17.082Z,27.58
2023-01-08T23:44:46.162Z,27.59
2023-01-08T23:47:15.447Z,27.57
2023-01-08T23:49:44.753Z,27.57
2023-01-08T23:52:14.033Z,27.57
2023-01-08T23:54:43.354Z,27.55
2023-01-08T23:57:12.652Z,27.54
2023-01-08T23:59:41.896Z,27.53
